Time;durP1;ratioP1;P1;durP2;ratioP2;P2;SDS_P1;SDS_P2;PMS_P1;PMS_P2;Temp;Humidity;BMP_temperature;BMP_pressure;BME280_temperature;BME280_humidity;BME280_pressure;Samples;Min_cycle;Max_cycle;Signal;HPM_P1;HPM_P2
2024/04/23 00:01:58;;;;;;;22.65;15.55;;;;;;;9.07;50.86;98584.72;5423610;26;20079;-45
2024/04/23 00:04:24;;;;;;;43.30;38.25;;;;;;;8.99;51.30;98576.03;5421583;26;20068;-45
2024/04/23 00:06:57;;;;;;;18.38;14.23;;;;;;;8.96;51.12;98571.19;5423258;26;20102;-45
2024/04/23 00:09:23;;;;;;;23.25;14.07;;;;;;;8.89;50.99;98570.31;5391953;26;20003;-45
2024/04/23 00:11:49;;;;;;;16.40;10.10;;;;;;;8.85;50.97;98581.38;5391802;26;20011;-45
2024/04/23 00:14:14;;;;;;;20.45;17.25;;;;;;;8.83;51.17;98578.94;5421453;26;20073;-45
2024/04/23 00:16:40;;;;;;;42.90;31.58;;;;;;;8.75;50.99;98573.84;5421347;26;20433;-45
2024/04/23 00:19:06;;;;;;;27.27;24.40;;;;;;;8.78;51.21;98573.47;5421379;26;20011;-45
2024/04/23 00:21:32;;;;;;;17.00;13.73;;;;;;;8.76;50.92;98572.88;5421275;26;20024;-45
2024/04/23 00:23:58;;;;;;;10.32;8.10;;;;;;;8.73;51.00;98574.06;5421271;26;20079;-45
2024/04/23 00:26:23;;;;;;;17.40;10.70;;;;;;;8.77;51.49;98569.22;5421258;26;20044;-45
2024/04/23 00:28:49;;;;;;;26.65;23.75;;;;;;;8.82;51.68;98572.09;5422999;26;20278;-45
2024/04/23 00:31:15;;;;;;;21.15;14.52;;;;;;;8.88;50.98;98563.47;5422936;26;20016;-45
2024/04/23 00:33:40;;;;;;;62.60;56.10;;;;;;;8.80;51.20;98558.41;5422858;26;19999;-45
2024/04/23 00:36:06;;;;;;;64.18;57.35;;;;;;;8.85;51.53;98560.44;5421151;26;20000;-45
2024/04/23 00:38:32;;;;;;;19.38;13.60;;;;;;;8.83;51.10;98552.75;5422601;26;20000;-45
2024/04/23 00:40:57;;;;;;;34.97;29.38;;;;;;;8.70;51.17;98545.66;5422684;26;19999;-45
2024/04/23 00:43:23;;;;;;;33.53;26.00;;;;;;;8.66;51.29;98546.25;5422810;26;20000;-45
2024/04/23 00:45:55;;;;;;;15.65;8.82;;;;;;;8.69;51.41;98541.44;5422441;26;20461;-45
2024/04/23 00:48:20;;;;;;;19.85;15.15;;;;;;;8.73;51.42;98536.59;5420981;26;20011;-45
2024/04/23 00:50:47;;;;;;;34.33;26.25;;;;;;;8.68;51.48;98531.16;5420840;26;20452;-45
2024/04/23 00:53:14;;;;;;;17.15;13.80;;;;;;;8.64;50.97;98528.09;5422658;26;20077;-45
2024/04/23 00:55:41;;;;;;;17.58;13.82;;;;;;;8.59;51.29;98531.31;5417365;26;20019;-45
2024/04/23 00:58:07;;;;;;;14.02;11.48;;;;;;;8.58;51.52;98528.88;5418548;26;20000;-45
2024/04/23 01:00:33;;;;;;;11.95;8.82;;;;;;;8.55;51.29;98529.25;5418581;26;20077;-45
2024/04/23 01:02:59;;;;;;;10.40;7.40;;;;;;;8.57;51.60;98519.41;5418506;26;19999;-45
2024/04/23 01:05:25;;;;;;;9.75;5.30;;;;;;;8.58;51.75;98523.66;5418411;26;20004;-45
2024/04/23 01:07:50;;;;;;;21.73;11.82;;;;;;;8.63;51.37;98520.44;5416608;26;20007;-45
2024/04/23 01:10:16;;;;;;;22.77;17.70;;;;;;;8.58;51.25;98528.88;5416553;26;20094;-45
2024/04/23 01:12:42;;;;;;;16.83;13.30;;;;;;;8.60;51.50;98532.09;5387023;26;20384;-45
2024/04/23 01:15:10;;;;;;;305.08;237.73;;;;;;;8.62;51.55;98526.69;5418363;26;20007;-45
2024/04/23 01:17:39;;;;;;;116.70;85.88;;;;;;;8.69;51.90;98520.50;5418335;26;20001;-45
2024/04/23 01:20:12;;;;;;;61.85;49.63;;;;;;;8.69;51.37;98530.13;5418261;26;20350;-45
2024/04/23 01:23:10;;;;;;;64.85;52.08;;;;;;;8.67;51.33;98522.50;5418490;26;20049;-45
2024/04/23 01:25:39;;;;;;;68.93;59.58;;;;;;;8.77;51.69;98527.38;5418115;26;20000;-45
2024/04/23 01:28:05;;;;;;;97.35;84.47;;;;;;;8.85;51.55;98515.94;5418017;26;20338;-45
2024/04/23 01:30:33;;;;;;;60.50;45.90;;;;;;;8.82;51.37;98518.97;5416293;26;20000;-45
2024/04/23 01:33:01;;;;;;;42.13;31.67;;;;;;;8.77;51.40;98516.91;5417971;26;20400;-45
2024/04/23 01:35:27;;;;;;;45.67;34.85;;;;;;;8.76;51.24;98510.88;5417927;26;20000;-45
2024/04/23 01:37:56;;;;;;;49.42;41.65;;;;;;;8.77;51.41;98524.75;5417683;26;20010;-45
2024/04/23 01:40:22;;;;;;;39.53;29.95;;;;;;;8.77;51.32;98525.59;5418056;26;20072;-45
2024/04/23 01:42:50;;;;;;;20.92;18.42;;;;;;;8.80;51.11;98527.00;5386619;26;20005;-45
2024/04/23 01:45:16;;;;;;;66.45;60.17;;;;;;;8.77;51.53;98516.91;5417756;26;20028;-45
2024/04/23 01:47:45;;;;;;;50.80;45.53;;;;;;;8.65;51.35;98526.28;5417491;26;20000;-45
2024/04/23 01:50:12;;;;;;;75.18;59.92;;;;;;;8.58;51.58;98524.44;5417797;26;20031;-45
2024/04/23 01:52:38;;;;;;;21.42;16.55;;;;;;;8.54;51.29;98525.03;5416062;26;19999;-45
2024/04/23 01:55:05;;;;;;;27.10;18.40;;;;;;;8.48;51.56;98531.81;5415983;26;20355;-45
2024/04/23 01:57:31;;;;;;;21.05;14.23;;;;;;;8.46;51.67;98520.75;5386338;26;20003;-45
2024/04/23 02:00:02;;;;;;;22.63;16.35;;;;;;;8.53;51.90;98519.00;5386311;26;20511;-45
2024/04/23 02:02:29;;;;;;;16.65;12.77;;;;;;;8.66;52.09;98520.06;5417805;26;20014;-45
2024/04/23 02:04:55;;;;;;;23.90;14.60;;;;;;;8.73;51.68;98520.91;5417785;26;20010;-45
2024/04/23 02:07:21;;;;;;;16.60;13.57;;;;;;;8.79;51.50;98510.50;5415251;26;19999;-45
2024/04/23 02:09:48;;;;;;;15.45;11.45;;;;;;;8.80;51.69;98509.47;5417584;26;20464;-45
2024/04/23 02:12:14;;;;;;;6.95;4.20;;;;;;;8.84;51.06;98507.28;5417508;26;20004;-45
2024/04/23 02:14:41;;;;;;;14.07;10.88;;;;;;;8.70;51.19;98500.38;5417475;26;20411;-45
2024/04/23 02:17:07;;;;;;;21.38;15.15;;;;;;;8.60;51.42;98503.34;5386105;26;20457;-45
2024/04/23 02:19:33;;;;;;;18.80;12.77;;;;;;;8.38;51.71;98508.59;5415648;26;20025;-45
2024/04/23 02:21:59;;;;;;;13.32;6.22;;;;;;;8.21;52.34;98504.66;5417398;26;19999;-45
2024/04/23 02:24:24;;;;;;;13.80;7.40;;;;;;;8.34;52.77;98498.69;5417289;26;20069;-45
2024/04/23 02:26:50;;;;;;;11.00;6.47;;;;;;;8.48;52.73;98495.22;5417286;26;20007;-45
2024/04/23 02:29:16;;;;;;;13.80;6.82;;;;;;;8.57;52.57;98496.69;5417247;26;20006;-44
2024/04/23 02:31:42;;;;;;;7.70;4.25;;;;;;;8.64;51.80;98490.69;5385931;26;20003;-45
2024/04/23 02:34:07;;;;;;;7.45;5.32;;;;;;;8.62;51.89;98484.84;5415530;26;20003;-45
2024/04/23 02:36:33;;;;;;;9.98;5.70;;;;;;;8.67;52.29;98483.25;5415082;26;20010;-45
2024/04/23 02:38:59;;;;;;;10.10;4.45;;;;;;;8.67;52.41;98485.06;5417621;26;20007;-45
2024/04/23 02:41:24;;;;;;;11.18;8.57;;;;;;;8.75;52.33;98488.34;5415632;26;20008;-45
2024/04/23 02:43:50;;;;;;;7.35;4.53;;;;;;;8.86;52.28;98484.34;5417336;26;20003;-45
2024/04/23 02:46:16;;;;;;;6.90;4.97;;;;;;;8.82;51.46;98474.47;5417383;26;20006;-45
2024/04/23 02:48:41;;;;;;;5.38;3.83;;;;;;;8.71;52.11;98474.03;5417302;26;20345;-45
2024/04/23 02:51:07;;;;;;;8.73;6.85;;;;;;;8.45;52.16;98477.31;5417414;26;20014;-45
2024/04/23 02:53:33;;;;;;;7.60;5.35;;;;;;;8.28;52.71;98483.78;5417231;26;20006;-45
2024/04/23 02:55:58;;;;;;;5.90;3.83;;;;;;;8.20;53.16;98475.06;5417020;26;20000;-45
2024/04/23 02:58:24;;;;;;;9.07;5.93;;;;;;;8.21;53.37;98475.91;5417219;26;20019;-45
2024/04/23 03:00:49;;;;;;;45.10;38.63;;;;;;;8.34;53.66;98472.56;5417102;26;20009;-45
2024/04/23 03:03:15;;;;;;;29.45;26.38;;;;;;;8.43;53.39;98468.84;5416999;26;20442;-45
2024/04/23 03:05:41;;;;;;;34.80;31.25;;;;;;;8.41;53.35;98470.84;5416995;26;20010;-45
2024/04/23 03:08:07;;;;;;;15.20;12.10;;;;;;;8.31;53.72;98471.13;5415378;26;20438;-45
2024/04/23 03:10:32;;;;;;;14.82;7.38;;;;;;;8.39;53.93;98467.53;5415287;26;20422;-45
2024/04/23 03:12:58;;;;;;;13.40;8.90;;;;;;;8.45;53.14;98459.00;5417070;26;20015;-45
2024/04/23 03:15:24;;;;;;;13.60;9.27;;;;;;;8.11;53.70;98465.75;5415078;26;20042;-45
2024/04/23 03:17:49;;;;;;;7.47;5.07;;;;;;;7.85;53.72;98452.47;5385524;26;20003;-45
2024/04/23 03:20:15;;;;;;;13.10;10.80;;;;;;;7.92;54.84;98467.22;5415756;26;20014;-45
2024/04/23 03:22:40;;;;;;;9.30;7.75;;;;;;;8.10;54.84;98464.13;5416740;26;20080;-45
2024/04/23 03:25:06;;;;;;;5.85;3.75;;;;;;;8.04;53.54;98457.06;5415043;26;19999;-45
2024/04/23 03:27:32;;;;;;;9.38;5.97;;;;;;;7.93;54.48;98462.81;5415185;26;20011;-45
2024/04/23 03:29:58;;;;;;;42.42;35.47;;;;;;;8.02;54.97;98458.25;5416944;26;20015;-45
2024/04/23 03:32:23;;;;;;;17.92;13.02;;;;;;;7.94;54.58;98460.00;5416449;26;20052;-45
2024/04/23 03:34:49;;;;;;;11.88;5.80;;;;;;;7.92;55.09;98461.97;5416471;26;20000;-45
2024/04/23 03:37:14;;;;;;;12.50;9.68;;;;;;;7.91;55.21;98456.97;5414259;26;20068;-45
2024/04/23 03:39:40;;;;;;;21.08;17.52;;;;;;;7.97;55.36;98456.22;5414454;26;20015;-45
2024/04/23 03:42:06;;;;;;;12.95;5.65;;;;;;;8.17;55.25;98467.63;5384905;26;20028;-45
2024/04/23 03:44:31;;;;;;;6.82;4.55;;;;;;;8.20;54.91;98451.53;5416103;26;20000;-45
2024/04/23 03:46:57;;;;;;;12.57;5.65;;;;;;;8.16;54.62;98452.13;5414363;26;20077;-45
2024/04/23 03:49:23;;;;;;;19.27;16.40;;;;;;;8.20;54.91;98456.78;5414363;26;20330;-45
2024/04/23 03:51:48;;;;;;;4.97;3.40;;;;;;;8.13;54.08;98453.31;5416160;26;20141;-45
2024/04/23 03:54:14;;;;;;;10.63;9.55;;;;;;;7.94;54.41;98449.53;5414124;26;20000;-45
2024/04/23 03:56:40;;;;;;;8.50;6.05;;;;;;;7.86;55.47;98447.06;5415826;26;20008;-45
2024/04/23 03:59:05;;;;;;;28.35;23.17;;;;;;;7.86;55.73;98447.06;5414266;26;20519;-45
2024/04/23 04:01:31;;;;;;;6.72;4.10;;;;;;;7.79;55.85;98444.41;5415871;26;20453;-45
2024/04/23 04:06:41;;;;;;;11.27;4.82;;;;;;;8.04;54.95;98448.41;5415757;26;20015;-45
2024/04/23 04:09:07;;;;;;;9.43;7.30;;;;;;;7.98;55.39;98431.69;5415661;26;20007;-45
2024/04/23 04:11:34;;;;;;;9.02;4.95;;;;;;;8.02;55.60;98437.34;5415665;26;20527;-45
2024/04/23 04:14:00;;;;;;;11.77;8.10;;;;;;;8.08;55.52;98440.00;5415632;26;20362;-45
2024/04/23 04:16:27;;;;;;;14.82;6.68;;;;;;;8.17;55.58;98438.88;5415478;26;20035;-45
2024/04/23 04:18:52;;;;;;;10.18;5.88;;;;;;;8.25;55.51;98437.09;5413754;26;20014;-45
2024/04/23 04:21:18;;;;;;;5.88;4.82;;;;;;;8.23;55.25;98434.69;5415550;26;20004;-45
2024/04/23 04:23:44;;;;;;;6.10;4.32;;;;;;;8.22;55.10;98435.66;5415387;26;20004;-45
2024/04/23 04:26:11;;;;;;;8.18;4.07;;;;;;;8.10;55.34;98438.00;5415531;26;20004;-45
2024/04/23 04:28:40;;;;;;;4.90;4.13;;;;;;;8.10;55.33;98435.38;5415393;26;20007;-46
2024/04/23 04:31:07;;;;;;;12.98;10.20;;;;;;;8.10;55.22;98434.59;5417862;26;20011;-45
2024/04/23 04:33:33;;;;;;;54.05;47.75;;;;;;;8.05;55.69;98429.94;5418868;26;19999;-45
2024/04/23 04:35:59;;;;;;;36.88;28.90;;;;;;;8.12;56.15;98425.53;5416989;26;20011;-46
2024/04/23 04:38:24;;;;;;;12.02;9.30;;;;;;;8.18;55.62;98429.22;5416819;26;20442;-45
2024/04/23 04:40:50;;;;;;;10.32;7.55;;;;;;;8.27;55.65;98420.22;5418736;26;20438;-45
2024/04/23 04:43:16;;;;;;;8.68;6.43;;;;;;;8.30;54.88;98432.09;5417013;26;20353;-44
2024/04/23 04:45:43;;;;;;;13.57;6.90;;;;;;;8.13;55.60;98423.72;5418763;26;20467;-45
2024/04/23 04:48:08;;;;;;;17.42;8.23;;;;;;;8.04;55.81;98428.31;5416947;26;20403;-45
2024/04/23 04:50:34;;;;;;;30.88;21.88;;;;;;;8.03;56.08;98434.53;5418694;26;19999;-45
2024/04/23 04:53:00;;;;;;;19.58;13.50;;;;;;;8.06;56.13;98426.31;5418709;26;20031;-44
2024/04/23 04:55:26;;;;;;;30.48;23.77;;;;;;;8.04;55.64;98423.06;5418519;26;20453;-45
2024/04/23 04:57:52;;;;;;;12.18;6.63;;;;;;;7.91;56.56;98423.00;5416766;26;20014;-44
2024/04/23 05:00:17;;;;;;;18.35;12.25;;;;;;;8.04;56.89;98419.66;5418485;26;20392;-45
2024/04/23 05:02:43;;;;;;;56.90;13.98;;;;;;;8.20;56.03;98421.97;5418444;26;20044;-45
2024/04/23 05:05:09;;;;;;;25.70;6.78;;;;;;;8.20;55.71;98416.75;5416789;26;20076;-45
2024/04/23 05:07:34;;;;;;;26.25;12.32;;;;;;;8.28;56.00;98424.44;5418375;26;20018;-45
2024/04/23 05:10:00;;;;;;;530.10;403.70;;;;;;;8.47;55.27;98425.63;5418410;26;20015;-45
2024/04/23 05:12:26;;;;;;;82.22;56.45;;;;;;;8.55;55.08;98428.06;5418475;26;20000;-45
2024/04/23 05:14:52;;;;;;;36.42;24.58;;;;;;;8.79;54.94;98428.56;5418263;26;20004;-45
2024/04/23 05:17:18;;;;;;;17.67;11.05;;;;;;;9.25;54.25;98424.50;5418271;26;20006;-45
2024/04/23 05:19:44;;;;;;;19.95;13.48;;;;;;;9.46;52.89;98429.56;5416546;26;20012;-45
2024/04/23 05:22:11;;;;;;;20.35;12.38;;;;;;;9.31;52.16;98432.34;5416573;26;19999;-45
2024/04/23 05:24:36;;;;;;;18.23;12.75;;;;;;;9.18;52.84;98424.47;5418109;26;19999;-45
2024/04/23 05:27:02;;;;;;;6.68;5.03;;;;;;;9.22;52.69;98423.06;5416484;26;20045;-45
2024/04/23 05:29:28;;;;;;;15.50;6.47;;;;;;;9.15;52.41;98424.84;5418081;26;20337;-45
2024/04/23 05:34:37;;;;;;;25.40;19.00;;;;;;;9.27;53.07;98425.91;5418082;26;20068;-45
2024/04/23 05:37:03;;;;;;;14.05;7.88;;;;;;;9.28;52.47;98422.28;5417928;26;20015;-45
2024/04/23 05:39:29;;;;;;;15.38;9.55;;;;;;;9.15;52.28;98443.19;5418300;26;19999;-45
2024/04/23 05:41:54;;;;;;;11.25;8.77;;;;;;;9.05;52.90;98445.38;5417430;26;20438;-45
2024/04/23 05:44:21;;;;;;;24.20;9.85;;;;;;;9.09;53.06;98436.13;5418244;26;20004;-44
2024/04/23 05:46:47;;;;;;;8.43;5.35;;;;;;;9.06;52.86;98437.31;5416421;26;20018;-46
2024/04/23 05:49:50;;;;;;;9.38;5.57;;;;;;;8.80;53.09;98438.03;5418114;26;20003;-45
2024/04/23 05:52:53;;;;;;;12.35;9.50;;;;;;;8.77;53.34;98447.09;5418166;26;20004;-45
2024/04/23 05:55:38;;;;;;;8.77;5.75;;;;;;;8.77;53.95;98441.84;5417926;26;20441;-45
2024/04/23 05:58:05;;;;;;;8.35;5.28;;;;;;;8.88;53.54;98440.47;5418184;26;20473;-45
2024/04/23 06:00:31;;;;;;;27.50;19.95;;;;;;;8.96;53.40;98435.06;5417897;26;20015;-45
2024/04/23 06:02:57;;;;;;;8.00;6.28;;;;;;;9.13;53.38;98439.97;5386629;26;20322;-45
2024/04/23 06:05:24;;;;;;;6.68;5.43;;;;;;;9.06;52.32;98442.56;5416195;26;20043;-45
2024/04/23 06:07:51;;;;;;;6.47;5.28;;;;;;;8.98;53.20;98446.16;5417944;26;20018;-45
2024/04/23 06:10:17;;;;;;;12.90;5.05;;;;;;;9.17;52.97;98436.75;5417951;26;20015;-45
2024/04/23 06:12:43;;;;;;;15.05;7.63;;;;;;;9.26;52.08;98441.81;5416081;26;20351;-45
2024/04/23 06:15:09;;;;;;;19.13;7.55;;;;;;;9.25;51.55;98442.81;5415919;26;19999;-45
2024/04/23 06:17:35;;;;;;;25.60;11.50;;;;;;;9.42;52.18;98441.47;5415960;26;20067;-45
2024/04/23 06:20:03;;;;;;;26.80;21.25;;;;;;;9.76;51.65;98430.00;5417794;26;20327;-44
2024/04/23 06:22:30;;;;;;;14.20;6.57;;;;;;;10.17;50.74;98428.16;5417739;26;20457;-45
2024/04/23 06:24:57;;;;;;;30.55;22.77;;;;;;;10.42;49.19;98433.59;5415987;26;20015;-45
2024/04/23 06:27:26;;;;;;;12.10;5.85;;;;;;;10.65;47.97;98435.75;5415735;26;20327;-45
2024/04/23 06:29:53;;;;;;;24.13;14.27;;;;;;;10.74;46.95;98431.06;5417606;26;20003;-45
2024/04/23 06:32:20;;;;;;;21.40;6.90;;;;;;;10.81;47.25;98431.88;5415740;26;20000;-45
2024/04/23 06:34:46;;;;;;;21.83;5.90;;;;;;;11.08;47.17;98424.66;5415461;26;20000;-45
2024/04/23 06:37:12;;;;;;;23.45;11.70;;;;;;;11.40;46.28;98419.44;5416903;26;20011;-45
2024/04/23 06:39:39;;;;;;;40.95;22.48;;;;;;;11.51;46.02;98441.59;5415353;26;19999;-45
2024/04/23 06:42:05;;;;;;;23.58;12.93;;;;;;;11.57;45.29;98427.63;5417011;26;20008;-45
2024/04/23 06:44:31;;;;;;;12.77;6.47;;;;;;;11.46;44.45;98431.72;5415295;26;19999;-45
2024/04/23 06:46:57;;;;;;;13.35;6.75;;;;;;;11.17;44.91;98430.50;5415198;26;20063;-45
2024/04/23 06:49:23;;;;;;;22.35;8.90;;;;;;;11.01;46.15;98437.03;5385655;26;20000;-45
2024/04/23 06:51:49;;;;;;;21.35;13.02;;;;;;;11.26;46.40;98429.22;5417132;26;20010;-45
2024/04/23 06:54:15;;;;;;;21.63;15.68;;;;;;;11.57;45.93;98433.69;5413348;26;20003;-45
2024/04/23 06:56:41;;;;;;;10.68;4.75;;;;;;;12.12;43.78;98427.81;5415218;26;19999;-45
2024/04/23 06:59:06;;;;;;;12.30;6.50;;;;;;;12.36;42.99;98430.63;5415413;26;20003;-45
2024/04/23 07:01:33;;;;;;;11.70;5.50;;;;;;;12.23;43.07;98434.19;5416772;26;20371;-45
2024/04/23 07:03:58;;;;;;;10.43;5.50;;;;;;;12.15;43.11;98422.13;5416828;26;20007;-45
2024/04/23 07:06:24;;;;;;;8.32;4.38;;;;;;;12.37;42.95;98426.97;5416829;26;20014;-45
2024/04/23 07:08:51;;;;;;;6.65;4.63;;;;;;;12.76;42.74;98419.69;5414926;26;19999;-45
2024/04/23 07:11:17;;;;;;;5.25;4.68;;;;;;;12.82;41.51;98417.97;5416753;26;20013;-45
2024/04/23 07:13:46;;;;;;;9.00;5.13;;;;;;;12.90;41.50;98420.31;5414970;26;20000;-45
2024/04/23 07:16:12;;;;;;;11.20;5.95;;;;;;;12.97;41.60;98431.56;5416465;26;20011;-45
2024/04/23 07:18:38;;;;;;;13.23;4.80;;;;;;;13.16;41.21;98413.91;5416531;26;20007;-45
2024/04/23 07:21:04;;;;;;;7.78;4.90;;;;;;;12.98;40.99;98427.91;5414867;26;20454;-45
2024/04/23 07:23:30;;;;;;;7.25;4.45;;;;;;;12.76;41.58;98425.75;5416607;26;19999;-45
2024/04/23 07:25:55;;;;;;;14.82;8.73;;;;;;;12.69;41.60;98424.19;5414651;26;20438;-45
2024/04/23 07:28:21;;;;;;;11.68;5.72;;;;;;;13.08;42.13;98422.09;5416454;26;20006;-45
2024/04/23 07:30:50;;;;;;;50.40;30.10;;;;;;;14.96;40.40;98421.44;5416466;26;19999;-45
2024/04/23 07:33:16;;;;;;;12.60;9.93;;;;;;;16.41;35.75;98407.66;5416457;26;19999;-45
2024/04/23 07:35:45;;;;;;;24.77;15.18;;;;;;;16.34;35.35;98405.22;5416258;26;20003;-46
2024/04/23 07:38:12;;;;;;;14.35;11.32;;;;;;;15.96;35.59;98413.94;5414478;26;20014;-45
2024/04/23 07:40:40;;;;;;;20.92;11.07;;;;;;;15.63;35.95;98409.41;5416591;26;19999;-45
2024/04/23 07:43:06;;;;;;;35.03;28.73;;;;;;;15.54;35.97;98414.28;5416506;26;20068;-45
2024/04/23 07:45:32;;;;;;;11.57;7.70;;;;;;;15.34;36.61;98407.59;5414589;26;20426;-45
2024/04/23 07:47:59;;;;;;;6.40;4.82;;;;;;;15.10;36.74;98414.06;5416420;26;20004;-46
2024/04/23 07:50:25;;;;;;;10.90;4.90;;;;;;;14.72;37.19;98404.88;5416402;26;20000;-45
2024/04/23 07:52:50;;;;;;;8.88;4.80;;;;;;;14.71;37.03;98413.84;5414657;26;20072;-45
2024/04/23 07:55:16;;;;;;;5.55;4.53;;;;;;;14.63;37.30;98411.53;5416197;26;20020;-45
2024/04/23 07:57:46;;;;;;;10.90;4.50;;;;;;;14.71;37.30;98416.47;5414580;26;20000;-45
2024/04/23 08:00:15;;;;;;;11.38;5.68;;;;;;;15.18;37.20;98403.88;5416138;26;20010;-45
2024/04/23 08:02:44;;;;;;;11.90;4.90;;;;;;;15.37;36.38;98401.84;5416140;26;20370;-45
2024/04/23 08:05:10;;;;;;;6.88;5.00;;;;;;;15.23;36.50;98395.25;5415395;26;20038;-46
2024/04/23 08:07:35;;;;;;;4.75;4.07;;;;;;;15.87;35.58;98394.19;5417810;26;20046;-46
2024/04/23 08:10:01;;;;;;;10.80;5.28;;;;;;;16.62;34.95;98399.97;5417976;26;20076;-46
2024/04/23 08:12:27;;;;;;;5.20;4.38;;;;;;;16.86;34.01;98393.41;5419603;26;20014;-46
2024/04/23 08:14:53;;;;;;;5.28;4.38;;;;;;;16.34;34.05;98394.63;5419494;26;20010;-45
2024/04/23 08:17:22;;;;;;;7.28;4.43;;;;;;;16.05;34.85;98391.28;5419456;26;20004;-45
2024/04/23 08:19:48;;;;;;;11.43;4.43;;;;;;;16.10;34.61;98390.59;5419559;26;20035;-45
2024/04/23 08:22:14;;;;;;;11.20;4.63;;;;;;;16.60;34.72;98392.28;5419635;26;20003;-46
2024/04/23 08:24:40;;;;;;;9.77;4.20;;;;;;;17.57;32.18;98380.03;5419592;26;20003;-45
2024/04/23 08:27:05;;;;;;;9.43;4.57;;;;;;;17.91;31.21;98379.78;5417608;26;20053;-45
2024/04/23 08:29:31;;;;;;;8.88;4.25;;;;;;;17.44;31.43;98377.00;5419280;26;20011;-45
2024/04/23 08:31:57;;;;;;;12.05;4.30;;;;;;;17.13;32.62;98384.69;5417729;26;20015;-45
2024/04/23 08:34:23;;;;;;;7.15;4.90;;;;;;;17.29;32.31;98372.38;5419213;26;20003;-45
2024/04/23 08:36:50;;;;;;;5.93;4.28;;;;;;;17.44;31.95;98374.34;5416870;26;20072;-45
2024/04/23 08:39:16;;;;;;;4.75;3.88;;;;;;;17.41;31.25;98375.66;5419001;26;20003;-44
2024/04/23 08:41:43;;;;;;;10.05;4.75;;;;;;;17.21;32.16;98370.16;5416966;26;20018;-45
2024/04/23 08:44:10;;;;;;;12.20;4.53;;;;;;;17.37;32.66;98371.91;5417209;26;20003;-45
2024/04/23 08:46:36;;;;;;;7.32;4.15;;;;;;;17.80;31.60;98361.34;5419074;26;20396;-45
2024/04/23 08:49:03;;;;;;;7.95;4.80;;;;;;;17.67;31.34;98360.72;5418718;26;20013;-45
2024/04/23 08:51:30;;;;;;;6.50;4.28;;;;;;;17.26;31.48;98362.25;5418660;26;20441;-45
2024/04/23 08:53:58;;;;;;;4.93;4.25;;;;;;;17.26;31.85;98346.34;5418691;26;20028;-45
2024/04/23 08:56:29;;;;;;;9.45;4.07;;;;;;;17.34;31.22;98348.53;5418502;26;20004;-45
2024/04/23 08:58:56;;;;;;;21.45;4.90;;;;;;;17.03;31.29;98337.66;5418686;26;20461;-45
2024/04/23 09:01:28;;;;;;;21.17;7.70;;;;;;;16.96;31.80;98345.81;5418451;26;20452;-45
2024/04/23 09:03:59;;;;;;;6.28;4.15;;;;;;;17.14;31.35;98342.00;5416869;26;20353;-45
2024/04/23 09:06:25;;;;;;;7.78;4.25;;;;;;;17.49;30.89;98345.22;5418475;26;20000;-45
2024/04/23 09:08:53;;;;;;;12.05;4.57;;;;;;;17.91;30.65;98333.84;5418606;26;20004;-45
2024/04/23 09:11:19;;;;;;;12.88;4.78;;;;;;;18.06;30.37;98341.88;5418431;26;20077;-45
2024/04/23 09:13:44;;;;;;;13.05;4.78;;;;;;;18.75;30.03;98335.53;5418523;26;20008;-45
2024/04/23 09:16:10;;;;;;;11.32;4.57;;;;;;;20.04;28.69;98338.22;5417315;26;20080;-46
2024/04/23 09:18:36;;;;;;;11.93;4.82;;;;;;;21.31;27.12;98323.47;5417869;26;20014;-44
2024/04/23 09:21:02;;;;;;;16.10;9.32;;;;;;;21.92;25.41;98330.13;5416492;26;20469;-43
2024/04/23 09:23:32;;;;;;;17.25;7.35;;;;;;;22.38;25.10;98317.38;5418343;26;19999;-44
2024/04/23 09:26:03;;;;;;;17.02;7.22;;;;;;;23.05;25.05;98315.38;5418326;26;20013;-44
2024/04/23 09:28:33;;;;;;;6.10;3.35;;;;;;;23.20;23.00;98297.47;5418135;26;20350;-44
2024/04/23 09:30:59;;;;;;;11.40;7.55;;;;;;;22.62;23.79;98311.97;5418037;26;20011;-43
2024/04/23 09:33:27;;;;;;;13.10;3.88;;;;;;;22.97;24.05;98312.53;5418164;26;20077;-43
2024/04/23 09:36:04;;;;;;;13.88;4.18;;;;;;;23.43;23.14;98298.44;5417880;26;20007;-43
2024/04/23 09:38:37;;;;;;;9.68;4.20;;;;;;;23.52;22.69;98291.31;5418167;26;20015;-43
2024/04/23 09:41:09;;;;;;;24.75;18.65;;;;;;;23.62;22.58;98296.50;5418289;26;20018;-43
2024/04/23 09:43:38;;;;;;;16.90;5.10;;;;;;;23.43;22.62;98293.88;5418219;26;20031;-43
2024/04/23 09:46:05;;;;;;;13.75;3.78;;;;;;;23.59;22.40;98299.78;5418193;26;20004;-44
2024/04/23 09:48:32;;;;;;;8.70;4.60;;;;;;;23.65;22.45;98295.91;5418206;26;19999;-43
2024/04/23 09:51:04;;;;;;;21.38;4.90;;;;;;;23.09;23.10;98299.53;5418189;26;20003;-44
2024/04/23 09:53:34;;;;;;;18.13;5.40;;;;;;;21.30;24.09;98299.72;5418147;26;20188;-44
2024/04/23 09:56:02;;;;;;;14.25;5.28;;;;;;;19.92;25.93;98295.91;5418041;26;20009;-44
2024/04/23 09:58:29;;;;;;;9.32;7.68;;;;;;;19.56;26.68;98285.31;5418172;26;20080;-44
2024/04/23 10:00:56;;;;;;;10.48;5.78;;;;;;;18.79;27.05;98290.63;5418032;26;20057;-43
2024/04/23 10:03:24;;;;;;;5.03;3.45;;;;;;;17.89;28.52;98291.63;5417963;26;19999;-43
2024/04/23 10:06:04;;;;;;;15.80;4.65;;;;;;;17.36;29.29;98296.03;5417929;26;20376;-43
2024/04/23 10:08:54;;;;;;;7.63;4.30;;;;;;;17.37;29.73;98309.03;5417984;26;20004;-43
2024/04/23 10:11:53;;;;;;;9.23;5.82;;;;;;;17.24;29.40;98306.78;5417861;26;20446;-43
2024/04/23 10:14:53;;;;;;;9.63;3.83;;;;;;;16.63;30.38;98304.34;5416944;26;20012;-43
2024/04/23 10:17:32;;;;;;;8.52;4.53;;;;;;;16.10;32.08;98319.09;5417723;26;20412;-45
2024/04/23 10:20:00;;;;;;;8.35;3.97;;;;;;;16.38;31.44;98300.38;5417799;26;20061;-45
2024/04/23 10:22:29;;;;;;;10.00;4.10;;;;;;;16.51;31.21;98309.00;5417730;26;20011;-45
2024/04/23 10:24:55;;;;;;;9.05;4.25;;;;;;;16.07;31.65;98307.13;5417624;26;20000;-45
2024/04/23 10:27:23;;;;;;;7.22;4.85;;;;;;;15.46;32.36;98314.19;5417454;26;20000;-45
2024/04/23 10:29:51;;;;;;;19.55;4.50;;;;;;;14.86;33.24;98295.22;5417583;26;20011;-45
2024/04/23 10:32:20;;;;;;;6.25;4.20;;;;;;;14.33;34.49;98293.69;5417610;26;20015;-45
2024/04/23 10:34:48;;;;;;;10.55;3.42;;;;;;;13.80;35.38;98306.03;5415840;26;20454;-44
2024/04/23 10:37:19;;;;;;;15.80;4.25;;;;;;;13.43;36.16;98294.94;5415202;26;20004;-45
2024/04/23 10:39:47;;;;;;;22.55;18.70;;;;;;;13.14;37.14;98321.13;5417376;26;20003;-44
2024/04/23 10:42:14;;;;;;;9.18;4.97;;;;;;;12.98;37.65;98330.47;5415370;26;20003;-45
2024/04/23 10:44:43;;;;;;;9.20;4.28;;;;;;;13.05;37.27;98333.00;5415341;26;20016;-44
2024/04/23 10:47:09;;;;;;;9.13;3.92;;;;;;;12.95;37.18;98334.31;5416930;26;20079;-45
2024/04/23 10:49:40;;;;;;;7.95;4.00;;;;;;;12.97;37.50;98328.84;5415243;26;20011;-45
2024/04/23 10:52:06;;;;;;;6.85;4.00;;;;;;;12.99;37.15;98335.47;5415231;26;20004;-45
2024/04/23 10:54:33;;;;;;;11.60;4.22;;;;;;;13.02;37.77;98328.97;5415301;26;20014;-44
2024/04/23 10:57:07;;;;;;;13.18;10.70;;;;;;;13.10;37.88;98333.09;5416962;26;20015;-45
2024/04/23 10:59:36;;;;;;;10.85;9.60;;;;;;;13.19;38.07;98331.75;5417050;26;20003;-45
2024/04/23 11:02:06;;;;;;;7.80;6.95;;;;;;;13.46;37.71;98337.47;5416975;26;20014;-45
2024/04/23 11:04:35;;;;;;;20.52;16.33;;;;;;;14.09;36.53;98333.34;5416939;26;20003;-45
2024/04/23 11:07:11;;;;;;;5.50;4.30;;;;;;;15.90;35.02;98322.28;5416887;26;20446;-45
2024/04/23 11:09:42;;;;;;;6.38;4.05;;;;;;;16.71;32.14;98303.91;5415195;26;19999;-45
2024/04/23 11:12:23;;;;;;;18.23;14.20;;;;;;;16.36;31.84;98310.41;5414987;26;20010;-45
2024/04/23 11:14:49;;;;;;;8.43;6.90;;;;;;;15.73;32.10;98283.41;5416650;26;20607;-45
2024/04/23 11:17:16;;;;;;;8.63;4.90;;;;;;;15.08;33.17;98299.84;5414792;26;20384;-45
2024/04/23 11:19:43;;;;;;;8.40;4.82;;;;;;;14.54;34.47;98300.97;5416593;26;20468;-45
2024/04/23 11:22:15;;;;;;;20.98;14.88;;;;;;;14.26;34.56;98285.09;5416585;26;19999;-44
2024/04/23 11:24:52;;;;;;;15.35;5.72;;;;;;;13.98;34.90;98289.28;5416535;26;19999;-45
2024/04/23 11:27:19;;;;;;;10.27;4.68;;;;;;;13.75;35.53;98288.28;5416482;26;19999;-45
2024/04/23 11:29:46;;;;;;;9.30;5.72;;;;;;;13.65;35.72;98280.16;5414726;26;20027;-45
2024/04/23 11:32:13;;;;;;;12.07;8.65;;;;;;;13.72;35.93;98280.84;5414554;26;20011;-45
2024/04/23 11:34:43;;;;;;;15.55;8.32;;;;;;;13.78;35.41;98235.09;5416360;26;20072;-45
2024/04/23 11:37:09;;;;;;;11.80;5.97;;;;;;;13.71;35.43;98270.53;5416164;26;20000;-44